Time;durP1;ratioP1;P1;durP2;ratioP2;P2;SDS_P1;SDS_P2;PMS_P1;PMS_P2;Temp;Humidity;BMP_temperature;BMP_pressure;BME280_temperature;BME280_humidity;BME280_pressure;Samples;Min_cycle;Max_cycle;Signal;HPM_P1;HPM_P2
2021/05/18 00:00:59;;;;;;;2.60;0.63;;;;;;;9.34;76.57;99779.94;5020745;28;20030;-80
2021/05/18 00:03:24;;;;;;;1.75;0.60;;;;;;;9.32;76.43;99779.09;5023530;28;20030;-80
2021/05/18 00:05:53;;;;;;;2.55;0.50;;;;;;;9.29;76.47;99779.13;5022558;28;20037;-81
2021/05/18 00:08:21;;;;;;;1.52;0.60;;;;;;;9.27;76.42;99778.28;5025259;28;20543;-79
2021/05/18 00:13:39;;;;;;;1.50;0.60;;;;;;;9.21;76.75;99772.19;5016294;28;20042;-80
2021/05/18 00:16:06;;;;;;;1.70;0.50;;;;;;;9.19;77.26;99773.09;5024479;28;20044;-80
2021/05/18 00:18:33;;;;;;;1.10;0.47;;;;;;;9.18;77.00;99777.50;5013992;28;20053;-80
2021/05/18 00:20:59;;;;;;;2.75;0.70;;;;;;;9.15;77.19;99772.28;5015425;28;20029;-81
2021/05/18 00:23:24;;;;;;;1.40;0.40;;;;;;;9.11;78.02;99781.09;5039472;28;20060;-80
2021/05/18 00:25:50;;;;;;;1.55;0.63;;;;;;;9.13;77.61;99779.31;5017649;28;20113;-79
2021/05/18 00:28:16;;;;;;;2.47;0.50;;;;;;;9.13;77.83;99779.31;5015365;28;20042;-80
2021/05/18 00:30:42;;;;;;;1.83;0.85;;;;;;;9.15;77.62;99785.44;5014726;28;20038;-79
2021/05/18 00:33:20;;;;;;;2.90;0.73;;;;;;;9.11;78.52;99782.88;5017156;28;20041;-80
2021/05/18 00:35:47;;;;;;;2.13;0.38;;;;;;;9.12;77.65;99782.00;5016217;28;20030;-79
2021/05/18 00:38:14;;;;;;;1.83;0.60;;;;;;;9.10;77.83;99784.63;5014777;28;20034;-81
2021/05/18 00:40:41;;;;;;;1.40;0.63;;;;;;;9.09;77.69;99782.91;5014150;28;20048;-79
2021/05/18 00:43:07;;;;;;;1.15;0.50;;;;;;;9.06;77.78;99782.91;5016447;28;20040;-80
2021/05/18 00:45:41;;;;;;;1.83;0.60;;;;;;;9.06;78.48;99782.06;5012904;28;20098;-80
2021/05/18 00:48:08;;;;;;;2.78;0.52;;;;;;;9.04;78.74;99779.44;5013932;28;20057;-80
2021/05/18 00:50:36;;;;;;;2.25;0.80;;;;;;;9.02;78.79;99781.22;5022634;28;20060;-79
2021/05/18 00:53:03;;;;;;;3.15;0.68;;;;;;;8.98;79.49;99782.13;5031201;28;20412;-79
2021/05/18 00:55:48;;;;;;;1.15;0.50;;;;;;;8.94;79.70;99783.09;5031887;28;20034;-80
2021/05/18 00:58:33;;;;;;;2.17;0.80;;;;;;;8.89;79.95;99782.25;5022594;28;20064;-80
2021/05/18 01:01:07;;;;;;;2.63;0.70;;;;;;;8.88;79.46;99785.75;5015902;28;20133;-79
2021/05/18 01:03:35;;;;;;;1.48;0.63;;;;;;;8.85;79.73;99789.28;5015661;28;20042;-80
2021/05/18 01:08:45;;;;;;;1.83;0.68;;;;;;;8.87;79.37;99798.06;5018384;28;20034;-80
2021/05/18 01:11:12;;;;;;;2.42;0.90;;;;;;;8.83;80.36;99795.47;5017571;28;20029;-80
2021/05/18 01:13:38;;;;;;;1.58;0.68;;;;;;;8.84;79.30;99797.22;5020519;28;20041;-79
2021/05/18 01:16:05;;;;;;;2.60;0.70;;;;;;;8.85;79.66;99798.97;5018554;28;20046;-80
2021/05/18 01:18:43;;;;;;;1.42;0.60;;;;;;;8.86;79.62;99795.47;5013919;28;20049;-80
2021/05/18 01:21:11;;;;;;;1.58;0.77;;;;;;;8.90;79.54;99803.28;5018079;28;20037;-80
2021/05/18 01:23:37;;;;;;;2.38;0.70;;;;;;;8.90;79.67;99800.66;5028236;28;20037;-80
2021/05/18 01:26:04;;;;;;;1.67;0.65;;;;;;;8.93;79.11;99802.38;5019468;28;20048;-79
2021/05/18 01:28:29;;;;;;;3.13;0.85;;;;;;;9.01;79.05;99805.78;5043794;28;20038;-80
2021/05/18 01:30:57;;;;;;;2.08;0.80;;;;;;;9.05;79.05;99810.13;5020271;28;20052;-80
2021/05/18 01:33:24;;;;;;;3.05;0.70;;;;;;;9.02;79.10;99801.41;5027499;28;20038;-80
2021/05/18 01:35:50;;;;;;;1.25;0.55;;;;;;;8.97;79.05;99814.63;5016997;28;20058;-80
2021/05/18 01:38:20;;;;;;;1.75;0.50;;;;;;;8.97;78.89;99819.88;5028267;28;20041;-80
2021/05/18 01:43:31;;;;;;;3.45;0.70;;;;;;;8.97;78.70;99818.13;5034870;28;20044;-79
2021/05/18 01:45:56;;;;;;;1.95;0.65;;;;;;;8.97;78.95;99815.50;5026064;28;20471;-80
2021/05/18 01:48:22;;;;;;;1.75;0.70;;;;;;;9.01;78.98;99824.22;5026400;28;20101;-79
2021/05/18 01:50:48;;;;;;;3.78;0.80;;;;;;;9.06;78.47;99818.91;5017060;28;20049;-80
2021/05/18 01:53:18;;;;;;;1.67;0.80;;;;;;;9.03;78.69;99827.69;5015715;28;20555;-79
2021/05/18 01:56:00;;;;;;;2.92;0.90;;;;;;;8.97;78.10;99827.78;5022064;28;20109;-80
2021/05/18 01:58:26;;;;;;;1.95;0.68;;;;;;;8.90;78.72;99826.09;5026980;28;20038;-80
2021/05/18 02:01:03;;;;;;;2.30;0.90;;;;;;;8.84;78.86;99828.81;5042508;28;20037;-80
2021/05/18 02:03:28;;;;;;;1.27;0.65;;;;;;;8.83;79.16;99837.56;5020118;28;20185;-80
2021/05/18 02:05:58;;;;;;;1.25;0.75;;;;;;;8.83;79.96;99832.31;5022580;28;20038;-80
2021/05/18 02:08:37;;;;;;;2.53;0.65;;;;;;;8.85;79.41;99838.44;5022333;28;20034;-80
2021/05/18 02:11:08;;;;;;;2.08;0.80;;;;;;;8.86;80.08;99833.16;5025061;28;20052;-80
2021/05/18 02:13:34;;;;;;;2.25;0.85;;;;;;;8.90;79.82;99837.50;5027393;28;20030;-80
2021/05/18 02:16:11;;;;;;;2.55;0.85;;;;;;;8.97;81.02;99847.06;5040603;28;20041;-80
2021/05/18 02:18:56;;;;;;;3.72;1.00;;;;;;;9.17;80.10;99854.75;5035461;28;20125;-81
2021/05/18 02:21:46;;;;;;;3.60;1.05;;;;;;;9.30;80.41;99854.59;5021981;28;20038;-80
2021/05/18 02:26:56;;;;;;;3.70;0.90;;;;;;;9.60;79.50;99858.63;5030961;28;20026;-80
2021/05/18 02:29:22;;;;;;;2.08;1.00;;;;;;;9.64;80.18;99866.47;5018998;28;20149;-80
2021/05/18 02:31:49;;;;;;;3.97;1.15;;;;;;;9.68;79.93;99867.31;5015941;28;20045;-80
2021/05/18 02:34:31;;;;;;;1.92;0.93;;;;;;;9.77;79.75;99869.84;5027845;28;20113;-80
2021/05/18 02:36:57;;;;;;;4.43;1.00;;;;;;;9.80;79.38;99864.50;5011959;28;20114;-79
2021/05/18 02:39:23;;;;;;;4.38;1.40;;;;;;;9.84;79.42;99863.56;5013968;28;20085;-79
2021/05/18 02:41:49;;;;;;;3.08;1.52;;;;;;;9.89;79.36;99868.78;5028542;28;20072;-78
2021/05/18 02:44:36;;;;;;;3.10;1.40;;;;;;;9.96;79.82;99870.44;5011325;28;20641;-79
2021/05/18 02:49:52;;;;;;;2.95;1.50;;;;;;;10.17;79.15;99865.75;5025774;28;20137;-78
2021/05/18 02:52:19;;;;;;;3.53;1.50;;;;;;;10.24;79.30;99873.56;5006446;28;20503;-77
2021/05/18 02:54:51;;;;;;;2.97;1.45;;;;;;;10.29;79.15;99884.03;5029188;28;20088;-78
2021/05/18 02:57:30;;;;;;;3.88;1.55;;;;;;;10.39;78.84;99887.41;5006811;28;20038;-78
2021/05/18 02:59:57;;;;;;;3.92;1.58;;;;;;;10.41;79.54;99886.50;5026263;28;20045;-78
2021/05/18 03:02:22;;;;;;;4.82;1.95;;;;;;;10.45;79.56;99898.75;5015166;28;20048;-78
2021/05/18 03:04:48;;;;;;;4.35;1.85;;;;;;;10.44;79.34;99899.63;5005129;28;20026;-77
2021/05/18 03:07:14;;;;;;;3.88;1.88;;;;;;;10.47;79.78;99896.06;5030043;28;20141;-77
2021/05/18 03:09:39;;;;;;;6.25;2.15;;;;;;;10.42;79.80;99893.50;5009253;28;20064;-78
2021/05/18 03:12:05;;;;;;;4.55;1.92;;;;;;;10.44;79.36;99907.53;5005625;28;20030;-77
2021/05/18 03:14:31;;;;;;;4.10;2.10;;;;;;;10.48;79.70;99901.34;5007898;28;20034;-78
2021/05/18 03:16:56;;;;;;;5.15;2.08;;;;;;;10.51;79.57;99898.66;5005106;28;20539;-78
2021/05/18 03:19:21;;;;;;;3.95;2.03;;;;;;;10.50;80.20;99902.16;5006328;28;20076;-77
2021/05/18 03:21:47;;;;;;;4.18;2.30;;;;;;;10.51;79.89;99909.19;5006695;28;20034;-78
2021/05/18 03:24:13;;;;;;;3.85;2.33;;;;;;;10.48;80.33;99911.91;5004795;28;20033;-78
2021/05/18 03:26:47;;;;;;;5.25;2.60;;;;;;;10.55;80.02;99907.38;5013038;28;20022;-78
2021/05/18 03:29:19;;;;;;;5.70;2.67;;;;;;;10.51;80.80;99910.97;5002626;28;20029;-78
2021/05/18 03:34:38;;;;;;;5.18;2.45;;;;;;;10.64;80.08;99916.94;5013183;28;20041;-79
2021/05/18 03:37:21;;;;;;;4.95;2.50;;;;;;;10.64;80.11;99914.28;5012722;28;20030;-79
2021/05/18 03:39:49;;;;;;;5.93;3.08;;;;;;;10.69;81.03;99923.00;5012460;28;20053;-78
2021/05/18 03:44:50;;;;;;;5.85;3.50;;;;;;;10.80;80.07;99921.06;5008019;28;20088;-78
2021/05/18 03:52:54;;;;;;;6.40;3.65;;;;;;;10.93;80.70;99937.56;5024115;28;20049;-78
2021/05/18 04:03:53;;;;;;;7.80;4.90;;;;;;;11.17;81.62;99941.53;5001803;28;20049;-77
2021/05/18 04:17:14;;;;;;;6.88;5.18;;;;;;;11.48;81.10;99951.53;5005364;28;20033;-77
2021/05/18 04:19:49;;;;;;;7.57;6.00;;;;;;;11.52;80.44;99955.84;5028552;28;20096;-77
2021/05/18 04:49:45;;;;;;;8.50;6.18;;;;;;;11.75;80.02;99988.00;5004507;28;20407;-78
2021/05/18 04:52:13;;;;;;;8.38;7.20;;;;;;;11.81;80.12;99994.94;5003686;28;20076;-77
2021/05/18 04:59:56;;;;;;;10.85;7.55;;;;;;;11.88;80.38;99998.38;5023693;28;20038;-77
2021/05/18 05:02:50;;;;;;;9.98;8.68;;;;;;;11.93;80.10;100007.09;5026311;28;20039;-77
2021/05/18 05:12:16;;;;;;;11.30;9.10;;;;;;;12.05;79.34;100014.75;5016843;28;20512;-78
2021/05/18 05:15:42;;;;;;;11.10;8.32;;;;;;;12.08;78.72;100017.34;5010780;28;20496;-77
2021/05/18 05:18:08;;;;;;;9.30;7.95;;;;;;;12.10;78.51;100017.31;5031365;28;20042;-77
2021/05/18 05:20:35;;;;;;;10.65;7.80;;;;;;;12.14;78.72;100021.66;5012956;28;20025;-77
2021/05/18 05:23:01;;;;;;;9.10;7.38;;;;;;;12.20;78.04;100011.78;5006679;28;20037;-78
2021/05/18 05:25:26;;;;;;;9.82;7.57;;;;;;;12.22;77.20;100025.00;5006589;28;20042;-77
2021/05/18 05:27:52;;;;;;;7.68;6.57;;;;;;;12.36;76.75;100038.78;5004841;28;20076;-78
2021/05/18 05:30:18;;;;;;;8.15;6.95;;;;;;;12.46;76.83;100018.31;5022534;28;20040;-77
2021/05/18 05:32:43;;;;;;;8.80;6.25;;;;;;;12.47;76.02;100027.97;5010659;28;20101;-77
2021/05/18 05:35:09;;;;;;;9.25;6.60;;;;;;;12.41;75.67;100026.34;5008218;28;20092;-77
2021/05/18 05:37:34;;;;;;;8.68;6.85;;;;;;;12.55;76.45;100039.28;5004417;28;20038;-77
2021/05/18 05:40:00;;;;;;;8.32;7.15;;;;;;;12.60;75.52;100032.13;5021876;28;20137;-77
2021/05/18 05:42:25;;;;;;;8.23;7.03;;;;;;;12.53;76.25;100041.09;5005587;28;20088;-78
2021/05/18 05:44:51;;;;;;;6.70;5.90;;;;;;;12.53;75.40;100035.81;5003402;28;20038;-77
2021/05/18 05:47:17;;;;;;;7.82;6.55;;;;;;;12.53;75.38;100035.81;5005799;28;20420;-78
2021/05/18 05:49:43;;;;;;;7.97;7.03;;;;;;;12.50;75.85;100044.69;5005737;28;20030;-78
2021/05/18 05:52:16;;;;;;;7.53;6.72;;;;;;;12.43;75.55;100045.72;5004502;28;20461;-77
2021/05/18 05:54:41;;;;;;;7.88;6.60;;;;;;;12.53;75.49;100051.69;5006838;28;20034;-77
2021/05/18 05:57:06;;;;;;;8.50;6.65;;;;;;;12.61;75.34;100051.50;5005505;28;20092;-78
2021/05/18 05:59:32;;;;;;;8.02;6.53;;;;;;;12.71;74.40;100045.13;5008822;28;20080;-77
2021/05/18 06:01:59;;;;;;;7.15;6.00;;;;;;;12.74;74.69;100055.63;5011967;28;20042;-77
2021/05/18 06:04:24;;;;;;;7.47;5.93;;;;;;;12.80;74.39;100076.66;5014190;28;20029;-77
2021/05/18 06:06:50;;;;;;;7.50;6.68;;;;;;;12.83;74.51;100060.69;5018081;28;20124;-77
2021/05/18 06:09:15;;;;;;;8.05;6.40;;;;;;;12.85;73.94;100060.69;5006770;28;20138;-77
2021/05/18 06:14:35;;;;;;;7.30;6.07;;;;;;;13.11;73.53;100052.97;5024636;28;20049;-77
2021/05/18 06:17:33;;;;;;;7.45;5.60;;;;;;;13.12;73.46;100051.19;5006636;28;20083;-77
2021/05/18 06:47:51;;;;;;;9.40;7.57;;;;;;;12.00;78.57;100088.91;5019735;28;20022;-77
2021/05/18 06:49:58;;;;;;;9.38;7.90;;;;;;;12.05;79.48;100099.38;4998229;28;20042;-78
2021/05/18 06:52:23;;;;;;;8.13;7.20;;;;;;;12.09;79.47;100101.09;5002976;28;20061;-78
2021/05/18 06:54:49;;;;;;;9.35;7.93;;;;;;;12.15;78.55;100119.47;5003974;28;20518;-77
2021/05/18 06:57:14;;;;;;;9.15;7.32;;;;;;;12.24;77.60;100111.38;5004638;28;20489;-77
2021/05/18 07:02:24;;;;;;;8.60;7.15;;;;;;;12.48;76.45;100119.72;5001932;28;20042;-77
2021/05/18 07:04:53;;;;;;;8.23;7.43;;;;;;;12.58;76.08;100123.94;5004244;28;20048;-77
2021/05/18 07:07:21;;;;;;;11.25;7.97;;;;;;;12.67;75.04;100128.16;5004404;28;20062;-77
2021/05/18 07:09:46;;;;;;;9.13;7.22;;;;;;;12.71;75.19;100133.34;5000516;28;20037;-78
2021/05/18 07:12:11;;;;;;;8.00;6.57;;;;;;;12.74;74.10;100134.19;5003549;28;20046;-77
2021/05/18 07:14:37;;;;;;;8.20;6.72;;;;;;;12.72;74.50;100139.50;5002498;28;20038;-77
2021/05/18 07:17:02;;;;;;;7.07;6.22;;;;;;;12.75;75.19;100138.56;5026627;28;20044;-77
2021/05/18 07:19:27;;;;;;;8.65;5.78;;;;;;;12.99;73.90;100142.47;5004193;28;20416;-77
2021/05/18 07:21:53;;;;;;;7.40;5.63;;;;;;;13.19;73.07;100160.56;5002278;28;20030;-77
2021/05/18 07:24:22;;;;;;;7.75;5.80;;;;;;;13.23;71.79;100148.97;5016371;28;20104;-78
2021/05/18 07:26:49;;;;;;;7.45;5.65;;;;;;;13.54;70.84;100144.72;5007283;28;20676;-77
2021/05/18 07:29:15;;;;;;;7.18;5.63;;;;;;;13.58;69.98;100145.53;5012678;28;20042;-77
2021/05/18 07:31:40;;;;;;;9.13;6.15;;;;;;;13.72;69.88;100163.75;5012019;28;20033;-77
2021/05/18 07:34:05;;;;;;;8.52;5.55;;;;;;;13.59;69.02;100153.44;5019068;28;20041;-77
2021/05/18 07:36:31;;;;;;;6.72;5.30;;;;;;;13.56;69.18;100158.81;5013264;28;20487;-77
2021/05/18 07:38:56;;;;;;;7.38;4.53;;;;;;;13.60;68.25;100167.59;5024836;28;20405;-78
2021/05/18 07:41:22;;;;;;;5.93;4.38;;;;;;;13.58;67.69;100151.72;5001303;28;20042;-77
2021/05/18 07:43:47;;;;;;;5.80;4.35;;;;;;;13.63;67.74;100158.69;5004615;28;20037;-78
2021/05/18 07:46:17;;;;;;;8.23;5.03;;;;;;;13.80;66.76;100151.16;5004721;28;20034;-77
2021/05/18 07:49:08;;;;;;;7.90;4.45;;;;;;;13.86;66.77;100156.34;5000761;28;20058;-77
2021/05/18 08:07:20;;;;;;;7.80;4.85;;;;;;;14.19;62.47;100170.47;5025584;28;20441;-78
2021/05/18 08:09:52;;;;;;;6.85;4.72;;;;;;;14.37;61.39;100178.88;5005534;28;20100;-78
2021/05/18 08:12:18;;;;;;;8.30;4.60;;;;;;;14.51;59.95;100173.16;5010334;28;20065;-77
2021/05/18 08:14:54;;;;;;;8.85;4.30;;;;;;;14.52;59.74;100161.66;5002255;28;20034;-77
2021/05/18 08:17:32;;;;;;;6.45;4.18;;;;;;;14.56;60.25;100173.94;5002828;28;20034;-78
2021/05/18 08:23:10;;;;;;;5.50;3.67;;;;;;;15.30;59.52;100165.53;5001138;28;20053;-77
2021/05/18 08:48:06;;;;;;;6.10;3.70;;;;;;;12.95;67.06;100186.69;5005106;28;20037;-76
2021/05/18 10:26:35;;;;;;;8.00;3.38;;;;;;;16.73;47.76;100165.97;5016438;28;20042;-79
2021/05/18 10:37:34;;;;;;;7.30;4.32;;;;;;;16.80;51.11;100167.53;5010581;28;20519;-77
2021/05/18 10:40:21;;;;;;;8.57;4.97;;;;;;;17.40;49.78;100151.88;5012482;28;20056;-76
2021/05/18 10:43:05;;;;;;;8.30;2.88;;;;;;;17.37;45.25;100153.78;5011831;28;20034;-78
2021/05/18 10:45:56;;;;;;;6.63;3.45;;;;;;;17.01;46.21;100163.16;5010242;28;20034;-78
2021/05/18 10:48:36;;;;;;;6.10;3.75;;;;;;;17.17;47.48;100165.25;5025918;28;20044;-78
2021/05/18 10:51:20;;;;;;;7.25;4.10;;;;;;;17.35;47.12;100145.84;5013339;28;20050;-78
2021/05/18 10:54:04;;;;;;;8.98;3.90;;;;;;;17.85;46.17;100161.59;5019869;28;20043;-79
2021/05/18 10:56:30;;;;;;;7.28;3.63;;;;;;;18.12;45.47;100140.00;5011921;28;20050;-77
2021/05/18 10:58:55;;;;;;;8.20;2.50;;;;;;;18.40;44.05;100143.19;5032386;28;20048;-78
2021/05/18 11:01:20;;;;;;;6.03;3.00;;;;;;;18.38;44.90;100134.38;5026463;28;20041;-78
2021/05/18 11:03:46;;;;;;;7.45;4.10;;;;;;;18.29;44.53;100147.28;5032560;28;20481;-78
2021/05/18 11:06:12;;;;;;;4.68;2.63;;;;;;;18.13;43.88;100141.72;5013961;28;20513;-78
2021/05/18 11:08:37;;;;;;;7.32;3.33;;;;;;;18.32;43.70;100147.16;5011048;28;20033;-78
2021/05/18 11:11:04;;;;;;;5.57;2.38;;;;;;;18.25;44.63;100173.25;5010043;28;20030;-79
2021/05/18 11:13:30;;;;;;;5.35;1.60;;;;;;;17.63;41.77;100163.38;5010089;28;20386;-78
2021/05/18 11:15:56;;;;;;;3.38;1.38;;;;;;;17.59;43.84;100143.13;5019312;28;20117;-78
2021/05/18 11:18:29;;;;;;;5.20;2.05;;;;;;;17.50;43.63;100145.22;5010904;28;20073;-78
2021/05/18 11:21:06;;;;;;;4.55;1.67;;;;;;;17.30;45.27;100147.84;5016512;28;20122;-77
2021/05/18 11:23:32;;;;;;;6.43;2.00;;;;;;;17.36;45.36;100144.91;4999283;28;20061;-79
2021/05/18 11:26:11;;;;;;;4.28;1.45;;;;;;;17.20;44.08;100157.13;5007459;28;20026;-78
2021/05/18 11:28:37;;;;;;;6.20;2.35;;;;;;;17.34;43.98;100129.88;5007412;28;20042;-78
2021/05/18 11:31:11;;;;;;;5.93;2.70;;;;;;;17.29;43.79;100148.75;5016255;28;20044;-78
2021/05/18 11:33:38;;;;;;;7.88;2.30;;;;;;;17.64;43.43;100133.97;5023411;28;20042;-77
2021/05/18 11:36:21;;;;;;;6.25;2.28;;;;;;;17.92;42.67;100152.41;5012223;28;20030;-78
2021/05/18 11:38:52;;;;;;;4.82;2.38;;;;;;;17.24;45.12;100134.75;5018457;28;20045;-78
2021/05/18 11:41:23;;;;;;;6.47;2.50;;;;;;;16.82;47.31;100143.47;5016152;28;20504;-77
2021/05/18 11:43:56;;;;;;;8.00;3.13;;;;;;;16.93;46.59;100159.06;5008344;28;20061;-78
2021/05/18 11:46:22;;;;;;;7.13;3.15;;;;;;;17.15;47.12;100135.09;5023878;28;20065;-78
2021/05/18 11:49:07;;;;;;;9.30;3.00;;;;;;;17.24;46.66;100140.09;5007979;28;20512;-78
2021/05/18 11:51:46;;;;;;;4.50;2.42;;;;;;;17.52;46.64;100139.81;5012620;28;20042;-78
2021/05/18 11:54:14;;;;;;;5.00;2.47;;;;;;;17.23;44.99;100135.66;5009776;28;20136;-78
2021/05/18 11:56:41;;;;;;;6.55;2.45;;;;;;;17.23;46.12;100127.66;5032438;28;20034;-77
2021/05/18 11:59:08;;;;;;;7.88;2.88;;;;;;;17.60;44.92;100124.34;5007711;28;20382;-78
2021/05/18 12:01:47;;;;;;;5.45;2.47;;;;;;;18.02;43.92;100127.97;5008828;28;20046;-78
2021/05/18 12:04:15;;;;;;;6.63;3.22;;;;;;;18.25;43.63;100127.84;5007616;28;20069;-78
2021/05/18 12:06:57;;;;;;;6.88;3.20;;;;;;;18.81;41.40;100116.41;5007679;28;20038;-78
2021/05/18 12:09:24;;;;;;;8.65;3.40;;;;;;;19.75;41.71;100117.22;5009947;28;20030;-78
2021/05/18 12:11:52;;;;;;;5.82;3.30;;;;;;;19.99;39.81;100114.22;5010440;28;20116;-78
2021/05/18 12:14:18;;;;;;;4.70;2.60;;;;;;;19.81;41.43;100121.44;5030622;28;20026;-76
2021/05/18 12:16:44;;;;;;;5.78;2.50;;;;;;;19.65;41.45;100118.63;5018543;28;20038;-78
2021/05/18 12:19:15;;;;;;;5.47;2.40;;;;;;;20.48;41.03;100112.50;5008912;28;20096;-78
2021/05/18 12:21:44;;;;;;;6.35;2.95;;;;;;;20.82;40.13;100124.13;5009668;28;20203;-78
2021/05/18 12:24:14;;;;;;;4.80;2.50;;;;;;;21.44;38.54;100109.00;5011587;28;20046;-78
2021/05/18 12:27:03;;;;;;;8.80;3.65;;;;;;;21.32;38.22;100120.41;5027960;28;20586;-78
2021/05/18 12:29:29;;;;;;;4.97;2.40;;;;;;;19.73;40.18;100123.59;5017420;28;20053;-78
2021/05/18 12:32:10;;;;;;;4.80;2.42;;;;;;;18.87;41.61;100133.13;5025244;28;20488;-78
2021/05/18 12:34:36;;;;;;;5.10;2.75;;;;;;;18.40;41.27;100121.81;5016739;28;20099;-78
2021/05/18 12:37:01;;;;;;;5.22;3.00;;;;;;;19.47;40.70;100118.59;5015943;28;20038;-78
2021/05/18 12:39:32;;;;;;;3.72;1.92;;;;;;;20.06;38.45;100110.28;5008001;28;20061;-77
2021/05/18 12:42:03;;;;;;;5.90;2.40;;;;;;;19.77;39.64;100106.44;5030628;28;20385;-77
2021/05/18 12:44:33;;;;;;;5.47;2.42;;;;;;;19.97;40.92;100111.66;5023679;28;20038;-77
2021/05/18 12:47:06;;;;;;;6.32;3.22;;;;;;;19.55;40.53;100106.63;5012582;28;20033;-78
2021/05/18 12:49:38;;;;;;;5.85;3.25;;;;;;;19.53;41.15;100109.38;5019362;28;20061;-78
2021/05/18 12:52:22;;;;;;;4.60;2.60;;;;;;;20.01;40.39;100109.66;5010941;28;20038;-78
2021/05/18 12:54:47;;;;;;;5.90;2.80;;;;;;;19.86;40.60;100109.53;5009083;28;20405;-78
2021/05/18 12:57:15;;;;;;;6.68;3.28;;;;;;;21.34;38.67;100106.91;5012901;28;20040;-78
2021/05/18 13:00:00;;;;;;;5.70;3.90;;;;;;;22.44;35.85;100104.88;5010817;28;20124;-78
2021/05/18 13:02:38;;;;;;;5.55;2.75;;;;;;;21.20;36.77;100107.72;5016579;28;20069;-78
2021/05/18 13:05:13;;;;;;;6.70;2.50;;;;;;;20.40;38.55;100108.50;5011387;28;20090;-78
2021/05/18 13:07:40;;;;;;;4.90;2.42;;;;;;;19.68;39.39;100131.88;4993153;28;20057;-77
2021/05/18 13:10:13;;;;;;;5.05;2.25;;;;;;;18.94;41.08;100116.72;5012745;28;20034;-77
2021/05/18 13:12:39;;;;;;;5.65;2.25;;;;;;;18.71;42.32;100117.75;5010843;28;20097;-78
2021/05/18 13:15:07;;;;;;;8.68;3.50;;;;;;;18.38;41.84;100121.00;5010138;28;20512;-79
2021/05/18 13:17:33;;;;;;;6.13;3.22;;;;;;;18.17;42.95;100119.28;5013817;28;20074;-79
2021/05/18 13:20:10;;;;;;;8.00;4.00;;;;;;;19.43;39.88;100117.00;5015194;28;20040;-79
2021/05/18 13:22:38;;;;;;;7.50;4.18;;;;;;;19.65;40.98;100115.94;5013603;28;20081;-78
2021/05/18 13:27:58;;;;;;;6.95;4.72;;;;;;;20.08;38.43;100111.94;5017213;28;20121;-78
2021/05/18 13:30:26;;;;;;;8.25;5.65;;;;;;;21.32;37.57;100115.03;5017017;28;20396;-78
2021/05/18 13:32:53;;;;;;;8.57;2.97;;;;;;;21.13;37.45;100103.63;5015956;28;20408;-77
2021/05/18 13:35:20;;;;;;;6.70;3.20;;;;;;;20.47;39.25;100112.59;5029160;28;20058;-79
2021/05/18 13:37:45;;;;;;;6.30;2.95;;;;;;;19.84;39.49;100114.09;5015887;28;20061;-78
2021/05/18 13:40:15;;;;;;;7.15;2.65;;;;;;;19.42;41.14;100114.41;5016757;28;20037;-77
2021/05/18 13:42:41;;;;;;;5.35;2.70;;;;;;;19.25;41.67;100118.75;5012857;28;20076;-78
2021/05/18 13:45:07;;;;;;;8.57;3.63;;;;;;;19.51;40.83;100113.94;5012835;28;20045;-78
2021/05/18 13:47:33;;;;;;;5.05;3.35;;;;;;;19.94;39.54;100101.09;5011465;28;20040;-78
2021/05/18 13:49:58;;;;;;;5.55;3.17;;;;;;;19.83;40.51;100114.16;5009777;28;20026;-78
2021/05/18 13:52:23;;;;;;;6.32;2.80;;;;;;;19.69;40.82;100102.34;5009160;28;20508;-78
2021/05/18 13:54:53;;;;;;;8.75;3.53;;;;;;;19.41;41.45;100099.28;5029810;28;20027;-77
2021/05/18 13:57:19;;;;;;;6.03;2.60;;;;;;;19.20;41.72;100095.84;5025312;28;20089;-77
2021/05/18 13:59:45;;;;;;;6.30;3.25;;;;;;;19.48;42.00;100092.69;5029783;28;20081;-77
2021/05/18 14:02:10;;;;;;;6.85;4.28;;;;;;;21.36;37.69;100087.06;5018883;28;20038;-78
2021/05/18 14:04:35;;;;;;;6.13;4.50;;;;;;;22.80;35.23;100079.31;5007053;28;20485;-79
2021/05/18 14:10:08;;;;;;;6.25;2.97;;;;;;;22.64;33.41;100066.84;4991974;28;20046;-77
2021/05/18 14:12:34;;;;;;;6.00;3.30;;;;;;;21.27;36.17;100092.97;5029517;28;20065;-76
2021/05/18 14:14:59;;;;;;;6.78;3.03;;;;;;;20.38;38.29;100083.59;5010415;28;20034;-77
2021/05/18 14:17:24;;;;;;;5.43;2.97;;;;;;;20.36;38.27;100075.66;5024706;28;20042;-78
2021/05/18 14:19:49;;;;;;;7.15;4.15;;;;;;;21.39;37.73;100070.81;5015572;28;20037;-79
2021/05/18 14:22:15;;;;;;;6.00;2.75;;;;;;;20.91;38.64;100078.03;5013876;28;20041;-79
2021/05/18 14:25:13;;;;;;;4.65;2.17;;;;;;;19.96;38.83;100082.25;5014282;28;20053;-78
2021/05/18 14:27:34;;;;;;;7.35;2.60;;;;;;;19.39;39.57;100071.75;5015911;28;20042;-77
2021/05/18 14:29:59;;;;;;;4.75;1.90;;;;;;;18.80;40.80;100074.56;5014353;28;20596;-78
2021/05/18 14:32:24;;;;;;;6.28;2.40;;;;;;;18.53;42.21;100076.69;5008122;28;20033;-78
2021/05/18 14:34:52;;;;;;;5.32;2.53;;;;;;;18.44;42.24;100081.59;5011932;28;20038;-78
2021/05/18 14:37:17;;;;;;;4.28;2.03;;;;;;;18.32;42.88;100078.56;5025039;28;20042;-78
2021/05/18 14:39:56;;;;;;;5.97;2.00;;;;;;;18.24;43.56;100086.03;5010881;28;20034;-77
2021/05/18 14:45:09;;;;;;;4.40;2.00;;;;;;;18.18;43.44;100094.31;5011509;28;20515;-77
2021/05/18 14:48:11;;;;;;;5.70;2.15;;;;;;;18.46;43.52;100095.75;5010436;28;20040;-78
2021/05/18 14:55:51;;;;;;;6.05;2.53;;;;;;;21.55;36.71;100080.66;5015560;28;20038;-79
2021/05/18 14:58:17;;;;;;;5.03;2.20;;;;;;;20.58;39.14;100095.00;5014738;28;20044;-79
2021/05/18 15:00:43;;;;;;;4.93;3.10;;;;;;;22.45;35.62;100077.00;5018839;28;20041;-79
2021/05/18 15:03:09;;;;;;;4.97;1.95;;;;;;;21.26;36.78;100085.88;5019084;28;20042;-78
2021/05/18 15:05:35;;;;;;;4.70;1.88;;;;;;;20.34;38.28;100086.47;5039136;28;20029;-78
2021/05/18 15:08:00;;;;;;;8.27;2.50;;;;;;;20.01;38.99;100081.06;5033949;28;20111;-77
2021/05/18 15:10:27;;;;;;;4.90;2.63;;;;;;;19.89;40.07;100092.44;5020607;28;20042;-79
2021/05/18 15:12:53;;;;;;;6.72;2.63;;;;;;;20.45;39.69;100093.91;5019304;28;20492;-78
2021/05/18 15:15:18;;;;;;;5.97;2.10;;;;;;;20.17;40.28;100089.16;5012693;28;20045;-77
2021/05/18 15:17:44;;;;;;;5.75;3.40;;;;;;;20.33;39.52;100098.13;5020966;28;20489;-77
2021/05/18 15:20:11;;;;;;;7.82;2.50;;;;;;;20.23;38.67;100088.84;5029168;28;20556;-78
2021/05/18 15:22:38;;;;;;;6.30;2.55;;;;;;;20.90;37.62;100092.38;5019365;28;20089;-77
2021/05/18 15:25:04;;;;;;;6.68;4.45;;;;;;;22.23;35.16;100089.09;5020834;28;20533;-77
2021/05/18 15:27:29;;;;;;;5.78;3.33;;;;;;;23.29;31.89;100092.28;5017873;28;20041;-78
2021/05/18 15:29:55;;;;;;;4.60;2.97;;;;;;;24.14;29.31;100074.00;5020566;28;20034;-79
2021/05/18 15:32:20;;;;;;;5.80;3.25;;;;;;;24.55;29.15;100078.31;5024418;28;20038;-79
2021/05/18 15:34:46;;;;;;;4.72;2.80;;;;;;;25.25;28.18;100072.31;5020466;28;20112;-78
2021/05/18 15:37:13;;;;;;;6.95;3.22;;;;;;;25.69;27.09;100060.84;5022485;28;20108;-79
2021/05/18 15:39:39;;;;;;;5.35;2.83;;;;;;;25.36;27.75;100066.97;5020592;28;20076;-77
2021/05/18 15:42:05;;;;;;;3.38;2.40;;;;;;;26.22;26.81;100066.66;5018501;28;20029;-72
2021/05/18 15:44:30;;;;;;;4.35;1.65;;;;;;;25.31;28.17;100061.94;5011757;28;20510;-73
2021/05/18 15:46:56;;;;;;;4.97;1.70;;;;;;;24.24;29.60;100070.53;5008057;28;20392;-72
2021/05/18 15:49:24;;;;;;;6.47;3.60;;;;;;;23.94;29.44;100068.13;5008745;28;20113;-72
2021/05/18 15:51:49;;;;;;;7.00;2.92;;;;;;;24.92;29.64;100079.22;5005874;28;20109;-72
2021/05/18 15:54:14;;;;;;;3.53;1.52;;;;;;;25.63;28.28;100076.69;5006439;28;20381;-73
2021/05/18 15:56:40;;;;;;;3.47;1.50;;;;;;;23.88;30.61;100078.50;5007027;28;20046;-72
2021/05/18 15:59:05;;;;;;;5.63;2.10;;;;;;;22.57;32.78;100083.47;5003777;28;20045;-72
2021/05/18 16:01:31;;;;;;;5.03;2.03;;;;;;;22.07;34.59;100074.84;5003104;28;20510;-72
2021/05/18 16:03:56;;;;;;;6.18;3.25;;;;;;;22.84;33.35;100087.06;5000799;28;20081;-72
2021/05/18 16:06:22;;;;;;;3.88;1.90;;;;;;;23.07;32.76;100082.94;5002304;28;20034;-72
2021/05/18 16:11:14;;;;;;;4.50;1.60;;;;;;;21.12;36.82;100093.88;5000284;28;20092;-72
2021/05/18 16:13:40;;;;;;;5.05;1.98;;;;;;;20.92;37.78;100095.84;5002451;28;20061;-71
2021/05/18 16:16:11;;;;;;;5.95;1.90;;;;;;;21.14;37.30;100094.63;5002507;28;20038;-72
2021/05/18 16:18:40;;;;;;;6.43;1.70;;;;;;;20.60;36.88;100105.66;5003197;28;20046;-73